Green River, Wyoming
Current Conditions -  °F | °C
As of 3:38 AM on Sunday 21 Dec 2014 (Local Time) from KRKS Reporting Station
Overcast Overcast  
Wind Chill: 22°   Ceiling: 3000
Heat Index: 30°   Visibility: 10mi
Dew Point: 25°   Wind: 8mph
Humidity: 82%   Direction: 230°SW
Pressure: 29.87"   Gusts: NA
Location:  41.53°N, 109.46°W
Report Text: KRKS 211038Z AUTO 23007KT 10SM BKN030 OVC035 M01/M04 A2987 RMK AO2 T10111039
Loading
Personal Weather Stations






























Interactive Weather Map New forecast layout! Learn more

10-Day Weather Forecast

Advertisements
Track Severe Weather on mobile